createdAt,value
2023-05-10T00:00:30.217Z,27.73
2023-05-10T00:02:57.694Z,27.42
2023-05-10T00:05:24.663Z,28.60
2023-05-10T00:07:52.932Z,28.13
2023-05-10T00:10:19.912Z,31.40
2023-05-10T00:12:46.998Z,29.73
2023-05-10T00:15:13.933Z,32.00
2023-05-10T00:17:41.139Z,32.58
2023-05-10T00:20:08.892Z,31.35
2023-05-10T00:22:35.999Z,30.52
2023-05-10T00:25:05.242Z,29.88
2023-05-10T00:27:32.106Z,30.75
2023-05-10T00:29:59.030Z,30.90
2023-05-10T00:32:25.836Z,29.67
2023-05-10T00:34:53.186Z,29.63
2023-05-10T00:37:20.064Z,26.45
2023-05-10T00:39:47.016Z,26.75
2023-05-10T00:42:15.795Z,26.33
2023-05-10T00:44:42.957Z,24.75
2023-05-10T00:47:10.326Z,23.85
2023-05-10T00:49:37.728Z,24.77
2023-05-10T00:52:05.217Z,24.27
2023-05-10T00:54:32.245Z,24.02
2023-05-10T00:56:59.814Z,24.58
2023-05-10T00:59:28.219Z,25.02
2023-05-10T01:01:55.479Z,22.95
2023-05-10T01:04:26.775Z,24.25
2023-05-10T01:06:54.757Z,23.35
2023-05-10T01:09:22.620Z,24.17
2023-05-10T01:11:50.952Z,22.90
2023-05-10T01:14:20.974Z,23.52
2023-05-10T01:16:50.990Z,23.42
2023-05-10T01:19:20.986Z,22.85
2023-05-10T01:21:56.202Z,22.92
2023-05-10T01:24:55.544Z,21.92
2023-05-10T01:27:48.548Z,23.45
2023-05-10T01:30:47.385Z,21.05
2023-05-10T01:33:19.189Z,21.60
2023-05-10T01:35:52.917Z,20.88
2023-05-10T01:38:28.562Z,19.38
2023-05-10T01:41:06.725Z,20.90
2023-05-10T01:43:43.839Z,18.73
2023-05-10T01:46:15.708Z,20.77
2023-05-10T01:48:51.977Z,20.73
2023-05-10T01:51:37.402Z,19.40
2023-05-10T01:54:07.037Z,20.58
2023-05-10T01:56:36.565Z,19.48
2023-05-10T01:59:09.755Z,19.35
2023-05-10T02:01:39.815Z,20.23
2023-05-10T02:04:10.128Z,19.45
2023-05-10T02:06:39.374Z,19.98
2023-05-10T02:09:07.699Z,19.60
2023-05-10T02:11:34.810Z,20.52
2023-05-10T02:14:02.371Z,18.58
2023-05-10T02:16:32.080Z,18.40
2023-05-10T02:19:02.244Z,18.88
2023-05-10T02:21:31.940Z,19.33
2023-05-10T02:24:00.285Z,16.15
2023-05-10T02:26:27.919Z,16.70
2023-05-10T02:28:57.402Z,17.20
2023-05-10T02:31:24.587Z,17.40
2023-05-10T02:33:52.628Z,17.08
2023-05-10T02:36:22.496Z,16.15
2023-05-10T02:38:53.036Z,17.73
2023-05-10T02:41:22.469Z,18.60
2023-05-10T02:43:51.922Z,16.58
2023-05-10T02:46:19.377Z,17.85
2023-05-10T02:48:46.635Z,16.40
2023-05-10T02:51:18.766Z,16.73
2023-05-10T02:53:49.277Z,15.63
2023-05-10T02:56:26.959Z,16.45
2023-05-10T02:58:53.906Z,16.73
2023-05-10T03:01:20.861Z,18.33
2023-05-10T03:03:47.687Z,18.25
2023-05-10T03:06:14.772Z,17.15
2023-05-10T03:08:41.641Z,18.92
2023-05-10T03:11:25.343Z,19.33
2023-05-10T03:14:03.797Z,18.23
2023-05-10T03:16:36.803Z,19.15
2023-05-10T03:19:10.938Z,21.08
2023-05-10T03:21:41.953Z,19.60
2023-05-10T03:24:12.964Z,20.08
2023-05-10T03:26:43.974Z,19.27
2023-05-10T03:29:11.500Z,21.88
2023-05-10T03:31:39.515Z,21.25
2023-05-10T03:34:07.269Z,21.83
2023-05-10T03:36:34.412Z,23.15
2023-05-10T03:39:01.516Z,21.55
2023-05-10T03:41:28.362Z,24.45
2023-05-10T03:43:56.663Z,25.58
2023-05-10T03:46:23.584Z,27.02
2023-05-10T03:48:50.486Z,27.10
2023-05-10T03:51:17.319Z,27.20
2023-05-10T03:53:44.211Z,27.42
2023-05-10T03:56:11.315Z,28.48
2023-05-10T03:58:38.217Z,27.38
2023-05-10T04:01:06.480Z,27.92
2023-05-10T04:03:33.404Z,27.98
2023-05-10T04:06:01.589Z,28.73
2023-05-10T04:08:28.590Z,28.48
2023-05-10T04:10:55.556Z,25.85
2023-05-10T04:13:23.884Z,26.20
2023-05-10T04:15:50.911Z,29.10
2023-05-10T04:18:19.177Z,28.17
2023-05-10T04:20:46.020Z,28.73
2023-05-10T04:23:12.866Z,29.13
2023-05-10T04:25:39.705Z,26.92
2023-05-10T04:28:06.587Z,27.75
2023-05-10T04:30:35.225Z,26.13
2023-05-10T04:33:02.954Z,25.33
2023-05-10T04:35:31.481Z,26.42
2023-05-10T04:37:58.473Z,24.83
2023-05-10T04:40:25.386Z,25.08
2023-05-10T04:42:52.524Z,24.10
2023-05-10T04:45:19.607Z,23.60
2023-05-10T04:47:46.467Z,21.88
2023-05-10T04:50:13.340Z,22.45
2023-05-10T04:52:41.537Z,21.50
2023-05-10T04:55:10.579Z,22.58
2023-05-10T04:57:37.452Z,22.38
2023-05-10T05:00:05.370Z,21.70
2023-05-10T05:02:32.338Z,20.88
2023-05-10T05:04:59.243Z,21.67
2023-05-10T05:07:26.455Z,20.20
2023-05-10T05:09:54.801Z,19.92
2023-05-10T05:12:21.643Z,18.33
2023-05-10T05:14:48.526Z,19.15
2023-05-10T05:17:15.365Z,19.30
2023-05-10T05:19:42.165Z,20.48
2023-05-10T05:22:09.734Z,20.65
2023-05-10T05:24:38.738Z,18.67
2023-05-10T05:27:07.207Z,18.67
2023-05-10T05:29:34.114Z,19.10
2023-05-10T05:32:01.303Z,19.33
2023-05-10T05:34:28.245Z,19.20
2023-05-10T05:36:55.227Z,17.77
2023-05-10T05:39:22.163Z,18.35
2023-05-10T05:41:49.009Z,17.90
2023-05-10T05:44:17.217Z,18.08
2023-05-10T05:46:44.101Z,17.50
2023-05-10T05:49:11.131Z,18.83
2023-05-10T05:51:38.012Z,19.60
2023-05-10T05:54:05.464Z,18.48
2023-05-10T05:56:32.301Z,19.25
2023-05-10T05:58:59.172Z,19.70
2023-05-10T06:01:27.399Z,17.83
2023-05-10T06:03:54.346Z,17.27
2023-05-10T06:06:21.233Z,19.05
2023-05-10T06:08:48.084Z,18.10
2023-05-10T06:11:14.860Z,19.63
2023-05-10T06:13:41.739Z,20.55
2023-05-10T06:16:08.716Z,22.52
2023-05-10T06:18:37.314Z,27.15
2023-05-10T06:21:04.295Z,24.38
2023-05-10T06:23:31.105Z,26.92
2023-05-10T06:25:57.972Z,25.27
2023-05-10T06:28:25.057Z,25.65
2023-05-10T06:30:51.801Z,23.48
2023-05-10T06:33:18.627Z,23.05
2023-05-10T06:35:46.967Z,22.27
2023-05-10T06:38:13.850Z,20.80
2023-05-10T06:40:42.673Z,20.42
2023-05-10T06:43:09.510Z,22.33
2023-05-10T06:45:36.520Z,22.33
2023-05-10T06:48:03.778Z,22.02
2023-05-10T06:50:30.821Z,17.73
2023-05-10T06:52:59.052Z,17.80
2023-05-10T06:55:26.175Z,19.13
2023-05-10T06:57:53.151Z,16.52
2023-05-10T07:00:21.157Z,14.98
2023-05-10T07:02:48.742Z,14.45
2023-05-10T07:05:16.472Z,14.95
2023-05-10T07:07:43.885Z,18.23
2023-05-10T07:10:12.481Z,18.10
2023-05-10T07:12:39.628Z,20.08
2023-05-10T07:15:07.887Z,19.80
2023-05-10T07:17:34.876Z,20.20
2023-05-10T07:20:01.866Z,15.23
2023-05-10T07:22:28.838Z,15.23
2023-05-10T07:24:55.956Z,15.65
2023-05-10T07:27:24.222Z,14.25
2023-05-10T07:29:51.569Z,13.45
2023-05-10T07:32:18.424Z,13.38
2023-05-10T07:34:45.371Z,13.27
2023-05-10T07:37:12.548Z,14.40
2023-05-10T07:39:39.473Z,13.30
2023-05-10T07:42:06.720Z,15.25
2023-05-10T07:44:34.918Z,14.85
2023-05-10T07:47:01.765Z,13.65
2023-05-10T07:49:28.714Z,13.38
2023-05-10T07:51:55.595Z,14.77
2023-05-10T07:54:22.622Z,13.73
2023-05-10T07:56:49.550Z,13.20
2023-05-10T07:59:18.046Z,12.07
2023-05-10T08:01:46.325Z,11.18
2023-05-10T08:04:13.291Z,11.38
2023-05-10T08:06:40.803Z,11.02
2023-05-10T08:09:07.785Z,12.70
2023-05-10T08:11:35.226Z,12.73
2023-05-10T08:14:02.586Z,12.32
2023-05-10T08:16:30.057Z,11.63
2023-05-10T08:18:58.519Z,12.32
2023-05-10T08:21:25.566Z,12.45
2023-05-10T08:23:52.442Z,11.85
2023-05-10T08:26:19.466Z,11.52
2023-05-10T08:28:46.296Z,11.98
2023-05-10T08:31:13.368Z,13.30
2023-05-10T08:33:42.082Z,12.88
2023-05-10T08:36:10.870Z,13.77
2023-05-10T08:38:39.105Z,13.07
2023-05-10T08:41:07.344Z,12.48
2023-05-10T08:43:36.847Z,14.27
2023-05-10T08:46:06.558Z,13.02
2023-05-10T08:48:35.620Z,11.20
2023-05-10T08:51:04.848Z,12.32
2023-05-10T08:53:34.571Z,13.98
2023-05-10T08:56:03.345Z,13.52
2023-05-10T08:58:30.614Z,11.60
2023-05-10T09:00:59.082Z,11.15
2023-05-10T09:03:26.038Z,10.30
2023-05-10T09:05:53.317Z,9.93
2023-05-10T09:08:21.394Z,9.63
2023-05-10T09:10:49.927Z,11.20
2023-05-10T09:13:20.534Z,11.65
2023-05-10T09:15:48.239Z,11.18
2023-05-10T09:18:15.187Z,10.85
2023-05-10T09:20:42.369Z,10.88
2023-05-10T09:23:09.326Z,10.70
2023-05-10T09:25:36.657Z,11.18
2023-05-10T09:28:08.408Z,10.93
2023-05-10T09:30:36.020Z,11.93
2023-05-10T09:33:03.501Z,12.82
2023-05-10T09:35:32.471Z,12.15
2023-05-10T09:38:01.722Z,13.20
2023-05-10T09:40:30.724Z,11.98
2023-05-10T09:42:58.611Z,12.93
2023-05-10T09:45:28.645Z,12.73
2023-05-10T09:47:56.115Z,12.57
2023-05-10T09:50:23.882Z,12.20
2023-05-10T09:52:52.340Z,12.35
2023-05-10T09:55:21.601Z,12.13
2023-05-10T09:57:49.211Z,12.10
2023-05-10T10:00:20.452Z,12.13
2023-05-10T10:02:55.292Z,16.13
2023-05-10T10:05:22.264Z,16.10
2023-05-10T10:07:51.438Z,16.73
2023-05-10T10:10:18.471Z,14.95
2023-05-10T10:12:45.642Z,15.85
2023-05-10T10:15:14.589Z,18.90
2023-05-10T10:17:44.608Z,18.42
2023-05-10T10:20:13.663Z,20.65
2023-05-10T10:22:40.549Z,22.13
2023-05-10T10:25:09.530Z,23.70
2023-05-10T10:27:46.226Z,25.10
2023-05-10T10:30:22.440Z,24.65
2023-05-10T10:33:20.163Z,24.30
2023-05-10T10:35:59.071Z,26.48
2023-05-10T10:38:26.116Z,27.77
2023-05-10T10:41:03.821Z,29.08
2023-05-10T10:43:31.309Z,30.42
2023-05-10T10:46:15.340Z,34.92
2023-05-10T10:51:12.777Z,25.73
2023-05-10T10:53:41.954Z,17.08
2023-05-10T10:56:10.614Z,17.83
2023-05-10T10:58:39.014Z,16.95
2023-05-10T11:01:14.608Z,14.90
2023-05-10T11:03:42.323Z,14.93
2023-05-10T11:06:10.702Z,13.88
2023-05-10T11:08:47.131Z,14.13
2023-05-10T11:11:16.191Z,12.90
2023-05-10T11:13:47.765Z,13.32
2023-05-10T11:16:18.418Z,12.20
2023-05-10T11:19:00.684Z,12.90
2023-05-10T11:21:29.375Z,11.45
2023-05-10T11:23:57.710Z,10.63
2023-05-10T11:26:26.560Z,11.13
2023-05-10T11:28:57.922Z,10.35
2023-05-10T11:31:27.609Z,10.85
2023-05-10T11:33:56.324Z,10.00
2023-05-10T11:36:26.354Z,9.50
2023-05-10T11:38:55.769Z,9.80
2023-05-10T11:41:24.300Z,9.10
2023-05-10T11:43:52.554Z,8.70
2023-05-10T11:46:21.621Z,9.13
2023-05-10T11:48:51.031Z,9.15
2023-05-10T11:51:21.829Z,8.60
2023-05-10T11:53:50.252Z,10.63
2023-05-10T11:56:18.406Z,9.23
2023-05-10T11:58:45.995Z,10.20
2023-05-10T12:01:13.157Z,9.63
2023-05-10T12:03:41.780Z,10.65
2023-05-10T12:06:09.110Z,10.32
2023-05-10T12:08:35.897Z,9.70
2023-05-10T12:11:07.514Z,9.88
2023-05-10T12:13:39.413Z,9.60
2023-05-10T12:16:14.448Z,8.95
2023-05-10T12:18:41.497Z,8.93
2023-05-10T12:21:08.550Z,9.02
2023-05-10T12:23:35.488Z,9.23
2023-05-10T12:26:05.164Z,9.05
2023-05-10T12:28:33.010Z,8.50
2023-05-10T12:31:01.479Z,8.95
2023-05-10T12:33:28.353Z,8.25
2023-05-10T12:35:57.382Z,8.43
2023-05-10T12:38:26.657Z,8.38
2023-05-10T12:40:53.506Z,8.15
2023-05-10T12:43:20.467Z,7.57
2023-05-10T12:45:49.765Z,6.72
2023-05-10T12:48:18.076Z,6.50
2023-05-10T12:50:44.967Z,6.88
2023-05-10T12:53:11.957Z,6.18
2023-05-10T12:55:38.806Z,6.22
2023-05-10T12:58:05.820Z,5.43
2023-05-10T13:00:32.780Z,5.35
2023-05-10T13:02:59.626Z,5.75
2023-05-10T13:05:27.811Z,5.60
2023-05-10T13:07:54.638Z,5.78
2023-05-10T13:10:21.454Z,5.68
2023-05-10T13:12:48.253Z,5.40
2023-05-10T13:15:15.020Z,4.95
2023-05-10T13:17:43.751Z,5.07
2023-05-10T13:20:11.838Z,5.13
2023-05-10T13:22:40.752Z,5.32
2023-05-10T13:25:08.297Z,4.60
2023-05-10T13:27:35.164Z,5.25
2023-05-10T13:30:02.568Z,5.07
2023-05-10T13:32:29.582Z,5.30
2023-05-10T13:34:56.892Z,5.30
2023-05-10T13:37:23.972Z,4.90
2023-05-10T13:39:52.794Z,5.20
2023-05-10T13:42:19.723Z,4.95
2023-05-10T13:44:46.595Z,4.25
2023-05-10T13:47:13.498Z,4.88
2023-05-10T13:49:40.418Z,4.65
2023-05-10T13:52:08.095Z,4.45
2023-05-10T13:54:35.172Z,3.67
2023-05-10T13:57:03.464Z,4.40
2023-05-10T13:59:32.642Z,5.03
2023-05-10T14:01:59.909Z,4.60
2023-05-10T14:04:26.812Z,3.85
2023-05-10T14:06:54.149Z,4.05
2023-05-10T14:09:21.514Z,4.53
2023-05-10T14:11:48.457Z,3.78
2023-05-10T14:14:16.670Z,4.18
2023-05-10T14:16:45.191Z,3.92
2023-05-10T14:19:12.967Z,3.83
2023-05-10T14:21:39.998Z,3.20
2023-05-10T14:24:08.142Z,4.07
2023-05-10T14:26:37.645Z,3.13
2023-05-10T14:29:04.434Z,3.42
2023-05-10T14:31:33.003Z,3.47
2023-05-10T14:34:00.249Z,3.95
2023-05-10T14:36:27.116Z,3.30
2023-05-10T14:38:54.129Z,4.57
2023-05-10T14:41:21.068Z,4.07
2023-05-10T14:43:47.890Z,3.05
2023-05-10T14:46:14.737Z,4.30
2023-05-10T14:48:43.118Z,3.38
2023-05-10T14:51:10.004Z,2.95
2023-05-10T14:53:36.890Z,3.75
2023-05-10T14:56:04.096Z,4.03
2023-05-10T14:58:33.953Z,3.88
2023-05-10T15:01:01.223Z,3.58
2023-05-10T15:03:28.605Z,4.32
2023-05-10T15:05:58.676Z,3.08
2023-05-10T15:08:25.753Z,3.60
2023-05-10T15:10:53.060Z,3.55
2023-05-10T15:13:19.917Z,3.25
2023-05-10T15:15:46.830Z,3.15
2023-05-10T15:18:13.773Z,3.42
2023-05-10T15:20:40.611Z,3.22
2023-05-10T15:23:09.086Z,2.75
2023-05-10T15:25:38.286Z,3.00
2023-05-10T15:28:05.933Z,3.47
2023-05-10T15:30:32.782Z,3.10
2023-05-10T15:33:00.145Z,3.40
2023-05-10T15:35:27.240Z,3.10
2023-05-10T15:37:54.208Z,3.05
2023-05-10T15:40:22.502Z,2.88
2023-05-10T15:42:49.429Z,2.95
2023-05-10T15:45:16.980Z,2.70
2023-05-10T15:47:45.130Z,3.17
2023-05-10T15:50:12.574Z,3.28
2023-05-10T15:52:39.502Z,3.05
2023-05-10T15:55:12.964Z,3.10
2023-05-10T15:57:42.527Z,3.20
2023-05-10T16:00:11.013Z,3.05
2023-05-10T16:02:38.043Z,4.22
2023-05-10T16:05:05.714Z,3.78
2023-05-10T16:07:32.811Z,2.97
2023-05-10T16:09:59.782Z,4.40
2023-05-10T16:12:26.722Z,4.40
2023-05-10T16:14:54.964Z,3.38
2023-05-10T16:17:21.837Z,3.97
2023-05-10T16:19:48.788Z,4.10
2023-05-10T16:22:15.987Z,3.17
2023-05-10T16:24:42.828Z,3.60
2023-05-10T16:27:09.914Z,3.88
2023-05-10T16:29:36.918Z,3.97
2023-05-10T16:32:05.928Z,3.65
2023-05-10T16:34:32.751Z,3.80
2023-05-10T16:36:59.657Z,3.55
2023-05-10T16:39:26.506Z,3.88
2023-05-10T16:41:53.290Z,3.97
2023-05-10T16:44:21.060Z,3.35
2023-05-10T16:46:49.027Z,3.75
2023-05-10T16:49:17.681Z,4.55
2023-05-10T16:51:44.535Z,4.20
2023-05-10T16:54:11.406Z,4.10
2023-05-10T16:56:38.563Z,3.85
2023-05-10T16:59:05.892Z,3.65
2023-05-10T17:01:33.942Z,4.57
2023-05-10T17:04:00.908Z,2.67
2023-05-10T17:06:29.207Z,4.05
2023-05-10T17:08:56.228Z,6.30
2023-05-10T17:11:23.023Z,2.72
2023-05-10T17:13:50.043Z,2.85
2023-05-10T17:16:17.260Z,5.10
2023-05-10T17:18:45.878Z,2.67
2023-05-10T17:21:12.944Z,3.00
2023-05-10T17:23:41.274Z,4.00
2023-05-10T17:26:08.442Z,3.17
2023-05-10T17:28:35.678Z,3.47
2023-05-10T17:31:02.884Z,4.07
2023-05-10T17:33:29.727Z,3.75
2023-05-10T17:35:57.019Z,3.58
2023-05-10T17:38:23.921Z,3.33
2023-05-10T17:40:52.871Z,4.18
2023-05-10T17:43:20.425Z,2.95
2023-05-10T17:45:48.064Z,3.35
2023-05-10T17:48:14.975Z,3.88
2023-05-10T17:50:42.314Z,4.18
2023-05-10T17:53:09.198Z,3.38
2023-05-10T17:55:36.224Z,2.92
2023-05-10T17:58:04.381Z,3.65
2023-05-10T18:00:31.307Z,3.08
2023-05-10T18:02:58.128Z,3.08
2023-05-10T18:05:25.074Z,3.08
2023-05-10T18:07:51.955Z,2.67
2023-05-10T18:10:19.046Z,3.00
2023-05-10T18:12:45.763Z,3.55
2023-05-10T18:15:14.033Z,3.67
2023-05-10T18:17:40.960Z,3.10
2023-05-10T18:20:09.193Z,2.47
2023-05-10T18:22:36.128Z,2.38
2023-05-10T18:25:02.980Z,2.78
2023-05-10T18:27:29.964Z,2.97
2023-05-10T18:29:57.020Z,3.45
2023-05-10T18:32:25.511Z,2.65
2023-05-10T18:34:54.472Z,2.92
2023-05-10T18:37:22.600Z,2.55
2023-05-10T18:39:50.025Z,2.53
2023-05-10T18:42:16.916Z,2.88
2023-05-10T18:44:43.838Z,3.10
2023-05-10T18:47:10.719Z,2.70
2023-05-10T18:49:39.744Z,3.20
2023-05-10T18:52:06.604Z,2.33
2023-05-10T18:54:33.412Z,3.53
2023-05-10T18:57:00.319Z,3.08
2023-05-10T18:59:27.987Z,3.03
2023-05-10T19:01:56.499Z,2.80
2023-05-10T19:04:24.457Z,2.63
2023-05-10T19:06:53.168Z,3.72
2023-05-10T19:09:21.110Z,3.10
2023-05-10T19:11:48.491Z,3.50
2023-05-10T19:14:15.677Z,2.75
2023-05-10T19:16:43.076Z,3.13
2023-05-10T19:19:10.600Z,3.25
2023-05-10T19:21:39.051Z,2.60
2023-05-10T19:24:08.065Z,3.10
2023-05-10T19:26:36.414Z,3.10
2023-05-10T19:29:04.147Z,3.33
2023-05-10T19:31:31.280Z,3.15
2023-05-10T19:34:00.665Z,3.05
2023-05-10T19:36:27.813Z,3.33
2023-05-10T19:38:54.898Z,3.53
2023-05-10T19:41:23.106Z,3.42
2023-05-10T19:43:49.990Z,3.53
2023-05-10T19:46:17.921Z,3.83
2023-05-10T19:48:48.802Z,4.18
2023-05-10T19:51:17.090Z,3.88
2023-05-10T19:53:44.987Z,4.88
2023-05-10T19:56:14.274Z,4.82
2023-05-10T19:58:43.118Z,5.40
2023-05-10T20:01:09.985Z,5.35
2023-05-10T20:03:36.948Z,6.57
2023-05-10T20:06:04.336Z,5.32
2023-05-10T20:08:31.518Z,5.22
2023-05-10T20:11:00.637Z,4.93
2023-05-10T20:13:27.561Z,4.55
2023-05-10T20:15:57.127Z,4.03
2023-05-10T20:18:24.616Z,4.60
2023-05-10T20:20:54.373Z,4.53
2023-05-10T20:23:21.250Z,4.63
2023-05-10T20:25:48.292Z,4.05
2023-05-10T20:28:15.928Z,4.50
2023-05-10T20:30:42.824Z,3.80
2023-05-10T20:33:11.107Z,4.85
2023-05-10T20:35:37.993Z,4.78
2023-05-10T20:38:04.859Z,3.88
2023-05-10T20:40:32.052Z,4.18
2023-05-10T20:42:58.897Z,4.20
2023-05-10T20:45:26.081Z,3.58
2023-05-10T20:47:53.775Z,4.13
2023-05-10T20:50:22.304Z,3.72
2023-05-10T20:52:52.315Z,4.93
2023-05-10T20:55:19.275Z,4.68
2023-05-10T20:57:47.121Z,4.57
2023-05-10T21:00:14.897Z,3.97
2023-05-10T21:02:43.710Z,4.50
2023-05-10T21:05:10.737Z,4.75
2023-05-10T21:07:39.479Z,4.90
2023-05-10T21:10:08.201Z,3.92
2023-05-10T21:12:35.133Z,3.92
2023-05-10T21:15:03.067Z,4.82
2023-05-10T21:17:29.888Z,4.07
2023-05-10T21:19:56.900Z,3.58
2023-05-10T21:22:23.740Z,5.35
2023-05-10T21:24:52.079Z,4.78
2023-05-10T21:27:18.952Z,5.40
2023-05-10T21:29:45.897Z,4.82
2023-05-10T21:32:12.807Z,5.72
2023-05-10T21:34:39.703Z,6.00
2023-05-10T21:37:06.757Z,5.93
2023-05-10T21:39:33.621Z,6.28
2023-05-10T21:42:03.514Z,6.55
2023-05-10T21:44:31.801Z,5.85
2023-05-10T21:46:58.711Z,6.35
2023-05-10T21:49:26.347Z,6.13
2023-05-10T21:51:53.284Z,5.80
2023-05-10T21:54:20.219Z,5.88
2023-05-10T21:56:47.267Z,6.18
2023-05-10T21:59:15.573Z,6.72
2023-05-10T22:01:43.805Z,6.43
2023-05-10T22:04:10.908Z,6.50
2023-05-10T22:06:37.762Z,5.50
2023-05-10T22:09:05.119Z,6.70
2023-05-10T22:11:31.995Z,6.28
2023-05-10T22:13:59.093Z,6.57
2023-05-10T22:16:27.394Z,7.28
2023-05-10T22:18:54.608Z,6.35
2023-05-10T22:21:21.700Z,6.38
2023-05-10T22:23:48.675Z,6.32
2023-05-10T22:26:15.583Z,6.00
2023-05-10T22:28:42.469Z,7.18
2023-05-10T22:31:10.552Z,7.05
2023-05-10T22:33:38.821Z,7.22
2023-05-10T22:36:06.790Z,7.10
2023-05-10T22:38:33.641Z,7.50
2023-05-10T22:41:00.709Z,7.00
2023-05-10T22:43:27.554Z,8.27
2023-05-10T22:45:54.468Z,7.75
2023-05-10T22:48:22.083Z,8.00
2023-05-10T22:50:50.443Z,7.20
2023-05-10T22:53:17.231Z,7.63
2023-05-10T22:55:44.156Z,7.75
2023-05-10T22:58:11.307Z,7.28
2023-05-10T23:00:38.355Z,8.98
2023-05-10T23:03:05.495Z,8.45
2023-05-10T23:05:32.504Z,8.02
2023-05-10T23:08:00.988Z,8.20
2023-05-10T23:10:27.898Z,6.97
2023-05-10T23:12:56.027Z,7.93
2023-05-10T23:15:23.012Z,8.23
2023-05-10T23:17:49.935Z,8.85
2023-05-10T23:20:17.139Z,8.85
2023-05-10T23:22:45.010Z,8.20
2023-05-10T23:25:13.200Z,8.10
2023-05-10T23:27:40.098Z,8.63
2023-05-10T23:30:08.286Z,7.75
2023-05-10T23:32:35.123Z,8.60
2023-05-10T23:35:01.990Z,8.15
2023-05-10T23:37:29.071Z,7.90
2023-05-10T23:39:55.967Z,7.85
2023-05-10T23:42:24.168Z,8.10
2023-05-10T23:44:51.137Z,8.40
2023-05-10T23:47:18.159Z,8.20
2023-05-10T23:49:45.107Z,8.23
2023-05-10T23:52:12.003Z,7.50
2023-05-10T23:54:39.221Z,8.35
2023-05-10T23:57:06.221Z,8.40
2023-05-10T23:59:34.444Z,7.00
